sensor_id;sensor_type;location;lat;lon;timestamp;P1;durP1;ratioP1;P2;durP2;ratioP2
50363;SDS011;36272;59.400;17.982;2022-08-30T00:01:47;3.95;;;0.57;;
50363;SDS011;36272;59.400;17.982;2022-08-30T00:06:49;1.55;;;0.60;;
50363;SDS011;36272;59.400;17.982;2022-08-30T00:11:50;2.17;;;0.60;;
50363;SDS011;36272;59.400;17.982;2022-08-30T00:16:52;3.28;;;0.50;;
50363;SDS011;36272;59.400;17.982;2022-08-30T00:21:54;2.13;;;0.65;;
50363;SDS011;36272;59.400;17.982;2022-08-30T00:26:55;2.25;;;0.60;;
50363;SDS011;36272;59.400;17.982;2022-08-30T00:31:57;1.90;;;0.60;;
50363;SDS011;36272;59.400;17.982;2022-08-30T00:36:59;1.83;;;0.60;;
50363;SDS011;36272;59.400;17.982;2022-08-30T00:42:01;1.25;;;0.70;;
50363;SDS011;36272;59.400;17.982;2022-08-30T00:47:02;3.10;;;0.63;;
50363;SDS011;36272;59.400;17.982;2022-08-30T00:52:05;6.10;;;0.57;;
50363;SDS011;36272;59.400;17.982;2022-08-30T00:57:08;2.30;;;0.68;;
50363;SDS011;36272;59.400;17.982;2022-08-30T01:02:11;5.13;;;1.00;;
50363;SDS011;36272;59.400;17.982;2022-08-30T01:07:13;1.42;;;0.70;;
50363;SDS011;36272;59.400;17.982;2022-08-30T01:12:16;1.63;;;0.75;;
50363;SDS011;36272;59.400;17.982;2022-08-30T01:17:17;4.00;;;0.60;;
50363;SDS011;36272;59.400;17.982;2022-08-30T01:27:37;1.35;;;0.70;;
50363;SDS011;36272;59.400;17.982;2022-08-30T01:32:45;1.35;;;0.80;;
50363;SDS011;36272;59.400;17.982;2022-08-30T01:37:48;2.38;;;0.80;;
50363;SDS011;36272;59.400;17.982;2022-08-30T01:42:50;2.65;;;1.00;;
50363;SDS011;36272;59.400;17.982;2022-08-30T01:47:51;2.30;;;0.70;;
50363;SDS011;36272;59.400;17.982;2022-08-30T01:52:53;1.38;;;0.60;;
50363;SDS011;36272;59.400;17.982;2022-08-30T01:57:55;3.20;;;0.98;;
50363;SDS011;36272;59.400;17.982;2022-08-30T02:02:57;4.25;;;0.70;;
50363;SDS011;36272;59.400;17.982;2022-08-30T02:07:59;3.50;;;0.80;;
50363;SDS011;36272;59.400;17.982;2022-08-30T02:13:00;2.17;;;0.73;;
50363;SDS011;36272;59.400;17.982;2022-08-30T02:18:03;3.28;;;0.65;;
50363;SDS011;36272;59.400;17.982;2022-08-30T02:23:04;4.13;;;0.98;;
50363;SDS011;36272;59.400;17.982;2022-08-30T02:28:06;2.35;;;0.80;;
50363;SDS011;36272;59.400;17.982;2022-08-30T02:33:08;1.35;;;0.57;;
50363;SDS011;36272;59.400;17.982;2022-08-30T02:38:09;5.40;;;0.80;;
50363;SDS011;36272;59.400;17.982;2022-08-30T02:43:11;6.35;;;0.98;;
50363;SDS011;36272;59.400;17.982;2022-08-30T02:48:13;7.50;;;0.95;;
50363;SDS011;36272;59.400;17.982;2022-08-30T02:53:15;4.72;;;1.20;;
50363;SDS011;36272;59.400;17.982;2022-08-30T02:58:17;1.55;;;0.80;;
50363;SDS011;36272;59.400;17.982;2022-08-30T03:03:19;1.67;;;0.65;;
50363;SDS011;36272;59.400;17.982;2022-08-30T03:08:21;3.55;;;1.23;;
50363;SDS011;36272;59.400;17.982;2022-08-30T03:13:23;2.10;;;1.05;;
50363;SDS011;36272;59.400;17.982;2022-08-30T03:18:25;0.85;;;0.77;;
50363;SDS011;36272;59.400;17.982;2022-08-30T03:23:27;1.65;;;0.98;;
50363;SDS011;36272;59.400;17.982;2022-08-30T03:28:28;1.42;;;0.70;;
50363;SDS011;36272;59.400;17.982;2022-08-30T03:33:30;3.45;;;1.25;;
50363;SDS011;36272;59.400;17.982;2022-08-30T03:38:32;2.90;;;0.90;;
50363;SDS011;36272;59.400;17.982;2022-08-30T03:43:33;3.35;;;0.88;;
50363;SDS011;36272;59.400;17.982;2022-08-30T03:48:35;4.68;;;0.90;;
50363;SDS011;36272;59.400;17.982;2022-08-30T03:53:37;1.33;;;0.77;;
50363;SDS011;36272;59.400;17.982;2022-08-30T03:58:38;1.33;;;0.73;;
50363;SDS011;36272;59.400;17.982;2022-08-30T04:03:40;3.67;;;1.10;;
50363;SDS011;36272;59.400;17.982;2022-08-30T04:08:42;2.13;;;0.93;;
50363;SDS011;36272;59.400;17.982;2022-08-30T04:13:46;4.43;;;1.00;;
50363;SDS011;36272;59.400;17.982;2022-08-30T04:18:49;2.40;;;0.77;;
50363;SDS011;36272;59.400;17.982;2022-08-30T04:23:51;6.97;;;1.00;;
50363;SDS011;36272;59.400;17.982;2022-08-30T04:28:53;3.67;;;1.27;;
50363;SDS011;36272;59.400;17.982;2022-08-30T04:33:55;1.30;;;1.00;;
50363;SDS011;36272;59.400;17.982;2022-08-30T04:38:57;3.33;;;0.98;;
50363;SDS011;36272;59.400;17.982;2022-08-30T04:44:13;3.15;;;0.80;;
50363;SDS011;36272;59.400;17.982;2022-08-30T04:49:15;1.33;;;0.77;;
50363;SDS011;36272;59.400;17.982;2022-08-30T04:54:17;5.10;;;1.10;;
50363;SDS011;36272;59.400;17.982;2022-08-30T04:59:19;2.28;;;1.20;;
50363;SDS011;36272;59.400;17.982;2022-08-30T05:04:22;4.53;;;1.20;;
50363;SDS011;36272;59.400;17.982;2022-08-30T05:09:23;2.78;;;0.73;;
50363;SDS011;36272;59.400;17.982;2022-08-30T05:14:25;5.50;;;0.98;;
50363;SDS011;36272;59.400;17.982;2022-08-30T05:19:32;3.47;;;1.00;;
50363;SDS011;36272;59.400;17.982;2022-08-30T05:24:34;2.63;;;1.25;;
50363;SDS011;36272;59.400;17.982;2022-08-30T05:29:36;3.13;;;0.93;;
50363;SDS011;36272;59.400;17.982;2022-08-30T05:34:38;1.20;;;0.80;;
50363;SDS011;36272;59.400;17.982;2022-08-30T05:39:44;4.47;;;1.17;;
50363;SDS011;36272;59.400;17.982;2022-08-30T05:44:49;4.40;;;0.90;;
50363;SDS011;36272;59.400;17.982;2022-08-30T05:49:52;6.22;;;0.77;;
50363;SDS011;36272;59.400;17.982;2022-08-30T05:54:55;2.17;;;0.60;;
50363;SDS011;36272;59.400;17.982;2022-08-30T06:00:07;1.35;;;0.65;;
50363;SDS011;36272;59.400;17.982;2022-08-30T06:10:46;3.40;;;1.27;;
50363;SDS011;36272;59.400;17.982;2022-08-30T06:15:48;5.85;;;0.80;;
50363;SDS011;36272;59.400;17.982;2022-08-30T06:20:51;2.25;;;0.85;;
50363;SDS011;36272;59.400;17.982;2022-08-30T06:25:52;2.40;;;0.70;;
50363;SDS011;36272;59.400;17.982;2022-08-30T06:30:54;2.83;;;0.90;;
50363;SDS011;36272;59.400;17.982;2022-08-30T06:36:00;3.58;;;1.05;;
50363;SDS011;36272;59.400;17.982;2022-08-30T06:41:07;1.65;;;0.60;;
50363;SDS011;36272;59.400;17.982;2022-08-30T06:46:15;3.40;;;0.75;;
50363;SDS011;36272;59.400;17.982;2022-08-30T06:51:30;4.35;;;0.70;;
50363;SDS011;36272;59.400;17.982;2022-08-30T06:56:35;1.95;;;0.75;;
50363;SDS011;36272;59.400;17.982;2022-08-30T07:01:37;3.90;;;0.85;;
50363;SDS011;36272;59.400;17.982;2022-08-30T07:06:38;4.53;;;0.63;;
50363;SDS011;36272;59.400;17.982;2022-08-30T07:11:40;3.13;;;0.70;;
50363;SDS011;36272;59.400;17.982;2022-08-30T07:16:42;4.97;;;0.82;;
50363;SDS011;36272;59.400;17.982;2022-08-30T07:21:44;6.85;;;0.98;;
50363;SDS011;36272;59.400;17.982;2022-08-30T07:26:47;3.70;;;0.80;;
50363;SDS011;36272;59.400;17.982;2022-08-30T07:31:51;2.45;;;0.60;;
50363;SDS011;36272;59.400;17.982;2022-08-30T07:36:53;3.30;;;0.88;;
50363;SDS011;36272;59.400;17.982;2022-08-30T07:41:55;2.42;;;0.70;;
50363;SDS011;36272;59.400;17.982;2022-08-30T07:46:56;3.28;;;1.17;;
50363;SDS011;36272;59.400;17.982;2022-08-30T07:51:58;3.78;;;0.70;;
50363;SDS011;36272;59.400;17.982;2022-08-30T07:56:59;1.58;;;0.40;;
50363;SDS011;36272;59.400;17.982;2022-08-30T08:02:01;2.67;;;0.43;;
50363;SDS011;36272;59.400;17.982;2022-08-30T08:07:03;2.08;;;0.73;;
50363;SDS011;36272;59.400;17.982;2022-08-30T08:12:05;0.73;;;0.47;;
50363;SDS011;36272;59.400;17.982;2022-08-30T08:17:07;4.60;;;0.70;;
50363;SDS011;36272;59.400;17.982;2022-08-30T08:22:09;1.55;;;0.50;;
50363;SDS011;36272;59.400;17.982;2022-08-30T08:27:11;1.40;;;0.50;;
50363;SDS011;36272;59.400;17.982;2022-08-30T08:32:13;2.70;;;0.50;;
50363;SDS011;36272;59.400;17.982;2022-08-30T08:37:14;1.15;;;0.47;;
50363;SDS011;36272;59.400;17.982;2022-08-30T08:48:26;3.28;;;0.68;;
50363;SDS011;36272;59.400;17.982;2022-08-30T09:03:47;1.05;;;0.50;;
50363;SDS011;36272;59.400;17.982;2022-08-30T09:08:49;1.75;;;0.50;;
50363;SDS011;36272;59.400;17.982;2022-08-30T09:13:51;0.80;;;0.22;;
50363;SDS011;36272;59.400;17.982;2022-08-30T09:18:54;4.38;;;0.40;;
50363;SDS011;36272;59.400;17.982;2022-08-30T09:23:57;0.52;;;0.40;;
50363;SDS011;36272;59.400;17.982;2022-08-30T09:29:01;0.80;;;0.40;;
50363;SDS011;36272;59.400;17.982;2022-08-30T09:34:06;3.20;;;0.60;;
50363;SDS011;36272;59.400;17.982;2022-08-30T09:39:24;0.93;;;0.25;;
50363;SDS011;36272;59.400;17.982;2022-08-30T09:44:28;1.38;;;0.50;;
50363;SDS011;36272;59.400;17.982;2022-08-30T09:49:39;2.60;;;0.50;;
50363;SDS011;36272;59.400;17.982;2022-08-30T09:59:59;0.88;;;0.30;;
50363;SDS011;36272;59.400;17.982;2022-08-30T10:05:14;2.28;;;0.40;;
50363;SDS011;36272;59.400;17.982;2022-08-30T10:10:19;3.20;;;0.60;;
50363;SDS011;36272;59.400;17.982;2022-08-30T10:15:31;2.15;;;0.80;;
50363;SDS011;36272;59.400;17.982;2022-08-30T10:25:55;1.52;;;0.75;;
50363;SDS011;36272;59.400;17.982;2022-08-30T10:31:12;0.93;;;0.55;;
50363;SDS011;36272;59.400;17.982;2022-08-30T10:36:30;2.80;;;0.80;;
50363;SDS011;36272;59.400;17.982;2022-08-30T10:41:41;2.30;;;0.90;;
50363;SDS011;36272;59.400;17.982;2022-08-30T10:52:41;1.55;;;0.50;;
50363;SDS011;36272;59.400;17.982;2022-08-30T10:57:47;6.28;;;0.90;;
50363;SDS011;36272;59.400;17.982;2022-08-30T11:13:45;2.70;;;0.82;;
50363;SDS011;36272;59.400;17.982;2022-08-30T11:18:51;0.88;;;0.70;;
50363;SDS011;36272;59.400;17.982;2022-08-30T11:29:02;1.20;;;0.60;;
50363;SDS011;36272;59.400;17.982;2022-08-30T11:34:05;1.60;;;0.50;;
50363;SDS011;36272;59.400;17.982;2022-08-30T11:39:08;1.73;;;0.40;;
50363;SDS011;36272;59.400;17.982;2022-08-30T11:49:43;1.42;;;0.30;;
50363;SDS011;36272;59.400;17.982;2022-08-30T11:55:24;2.03;;;0.68;;
50363;SDS011;36272;59.400;17.982;2022-08-30T12:10:39;0.93;;;0.35;;
50363;SDS011;36272;59.400;17.982;2022-08-30T12:15:58;1.52;;;0.60;;
50363;SDS011;36272;59.400;17.982;2022-08-30T12:21:13;4.07;;;0.95;;
50363;SDS011;36272;59.400;17.982;2022-08-30T12:26:27;3.30;;;0.95;;
50363;SDS011;36272;59.400;17.982;2022-08-30T12:31:42;2.42;;;0.77;;
50363;SDS011;36272;59.400;17.982;2022-08-30T12:36:50;2.90;;;0.85;;
50363;SDS011;36272;59.400;17.982;2022-08-30T12:42:11;3.70;;;0.70;;
50363;SDS011;36272;59.400;17.982;2022-08-30T12:53:14;2.85;;;0.52;;
50363;SDS011;36272;59.400;17.982;2022-08-30T12:58:08;0.57;;;0.40;;
50363;SDS011;36272;59.400;17.982;2022-08-30T13:18:54;1.77;;;0.95;;
50363;SDS011;36272;59.400;17.982;2022-08-30T13:24:14;1.50;;;0.50;;
50363;SDS011;36272;59.400;17.982;2022-08-30T13:29:17;1.30;;;0.30;;
50363;SDS011;36272;59.400;17.982;2022-08-30T13:34:21;0.53;;;0.43;;
50363;SDS011;36272;59.400;17.982;2022-08-30T13:39:23;0.30;;;0.20;;
50363;SDS011;36272;59.400;17.982;2022-08-30T13:44:25;0.85;;;0.30;;
50363;SDS011;36272;59.400;17.982;2022-08-30T13:49:29;3.08;;;0.40;;
50363;SDS011;36272;59.400;17.982;2022-08-30T13:54:32;1.30;;;0.50;;
50363;SDS011;36272;59.400;17.982;2022-08-30T13:59:34;2.00;;;0.50;;
50363;SDS011;36272;59.400;17.982;2022-08-30T14:04:36;1.38;;;0.60;;
50363;SDS011;36272;59.400;17.982;2022-08-30T14:09:37;1.30;;;0.57;;
50363;SDS011;36272;59.400;17.982;2022-08-30T14:14:39;1.92;;;0.60;;
50363;SDS011;36272;59.400;17.982;2022-08-30T14:19:41;1.70;;;0.50;;
50363;SDS011;36272;59.400;17.982;2022-08-30T14:24:42;0.85;;;0.60;;
50363;SDS011;36272;59.400;17.982;2022-08-30T14:29:44;0.40;;;0.20;;
50363;SDS011;36272;59.400;17.982;2022-08-30T14:34:46;2.30;;;0.45;;
50363;SDS011;36272;59.400;17.982;2022-08-30T14:39:48;1.17;;;0.25;;
50363;SDS011;36272;59.400;17.982;2022-08-30T14:44:49;2.45;;;0.57;;
50363;SDS011;36272;59.400;17.982;2022-08-30T14:49:51;0.30;;;0.20;;
50363;SDS011;36272;59.400;17.982;2022-08-30T14:54:53;0.50;;;0.30;;
50363;SDS011;36272;59.400;17.982;2022-08-30T14:59:55;1.30;;;0.35;;
50363;SDS011;36272;59.400;17.982;2022-08-30T15:04:56;1.02;;;0.50;;
50363;SDS011;36272;59.400;17.982;2022-08-30T15:09:58;0.60;;;0.35;;
50363;SDS011;36272;59.400;17.982;2022-08-30T15:15:00;0.85;;;0.30;;
50363;SDS011;36272;59.400;17.982;2022-08-30T15:20:02;3.17;;;0.40;;
50363;SDS011;36272;59.400;17.982;2022-08-30T15:25:04;1.17;;;0.43;;
50363;SDS011;36272;59.400;17.982;2022-08-30T15:30:22;1.15;;;0.28;;
50363;SDS011;36272;59.400;17.982;2022-08-30T15:35:23;2.15;;;0.30;;
50363;SDS011;36272;59.400;17.982;2022-08-30T15:40:25;1.70;;;0.40;;
50363;SDS011;36272;59.400;17.982;2022-08-30T15:45:28;1.90;;;0.35;;
50363;SDS011;36272;59.400;17.982;2022-08-30T15:50:30;2.72;;;0.70;;
50363;SDS011;36272;59.400;17.982;2022-08-30T15:55:31;0.75;;;0.40;;
50363;SDS011;36272;59.400;17.982;2022-08-30T16:00:33;2.28;;;0.68;;
50363;SDS011;36272;59.400;17.982;2022-08-30T16:05:34;2.83;;;0.95;;
50363;SDS011;36272;59.400;17.982;2022-08-30T16:10:39;2.88;;;0.50;;
50363;SDS011;36272;59.400;17.982;2022-08-30T16:15:41;5.63;;;0.63;;
50363;SDS011;36272;59.400;17.982;2022-08-30T16:20:49;2.03;;;0.82;;
50363;SDS011;36272;59.400;17.982;2022-08-30T16:26:06;1.77;;;0.73;;
50363;SDS011;36272;59.400;17.982;2022-08-30T16:31:08;3.78;;;0.75;;
50363;SDS011;36272;59.400;17.982;2022-08-30T16:36:11;1.15;;;0.50;;
50363;SDS011;36272;59.400;17.982;2022-08-30T16:41:13;1.92;;;0.50;;
50363;SDS011;36272;59.400;17.982;2022-08-30T16:46:16;2.30;;;0.80;;
50363;SDS011;36272;59.400;17.982;2022-08-30T16:51:21;2.88;;;1.30;;
50363;SDS011;36272;59.400;17.982;2022-08-30T16:56:24;1.40;;;0.80;;
50363;SDS011;36272;59.400;17.982;2022-08-30T17:01:28;1.15;;;0.57;;
50363;SDS011;36272;59.400;17.982;2022-08-30T17:06:34;2.85;;;0.50;;
50363;SDS011;36272;59.400;17.982;2022-08-30T17:11:36;2.78;;;0.50;;
50363;SDS011;36272;59.400;17.982;2022-08-30T17:16:38;1.17;;;0.50;;
50363;SDS011;36272;59.400;17.982;2022-08-30T17:21:40;1.40;;;0.60;;
50363;SDS011;36272;59.400;17.982;2022-08-30T17:26:41;1.50;;;0.60;;
50363;SDS011;36272;59.400;17.982;2022-08-30T17:31:43;2.47;;;0.73;;
50363;SDS011;36272;59.400;17.982;2022-08-30T17:36:48;3.00;;;0.85;;
50363;SDS011;36272;59.400;17.982;2022-08-30T17:41:51;5.18;;;0.85;;
50363;SDS011;36272;59.400;17.982;2022-08-30T17:46:53;2.55;;;0.52;;
50363;SDS011;36272;59.400;17.982;2022-08-30T17:51:55;2.22;;;0.77;;
50363;SDS011;36272;59.400;17.982;2022-08-30T17:56:57;3.85;;;1.25;;
50363;SDS011;36272;59.400;17.982;2022-08-30T18:02:00;3.10;;;1.10;;
50363;SDS011;36272;59.400;17.982;2022-08-30T18:07:02;1.15;;;0.60;;
50363;SDS011;36272;59.400;17.982;2022-08-30T18:12:04;2.13;;;0.70;;
50363;SDS011;36272;59.400;17.982;2022-08-30T18:17:06;2.25;;;0.75;;
50363;SDS011;36272;59.400;17.982;2022-08-30T18:22:08;2.80;;;0.82;;
50363;SDS011;36272;59.400;17.982;2022-08-30T18:27:09;1.73;;;0.70;;
50363;SDS011;36272;59.400;17.982;2022-08-30T18:32:12;3.22;;;1.20;;
50363;SDS011;36272;59.400;17.982;2022-08-30T18:37:13;1.88;;;0.60;;
50363;SDS011;36272;59.400;17.982;2022-08-30T18:42:15;3.40;;;1.05;;
50363;SDS011;36272;59.400;17.982;2022-08-30T18:47:17;3.88;;;0.95;;
50363;SDS011;36272;59.400;17.982;2022-08-30T18:52:19;1.45;;;0.60;;
50363;SDS011;36272;59.400;17.982;2022-08-30T18:57:21;2.33;;;0.57;;
50363;SDS011;36272;59.400;17.982;2022-08-30T19:02:28;3.80;;;0.82;;
50363;SDS011;36272;59.400;17.982;2022-08-30T19:07:30;3.67;;;0.80;;
50363;SDS011;36272;59.400;17.982;2022-08-30T19:12:31;1.67;;;0.52;;
50363;SDS011;36272;59.400;17.982;2022-08-30T19:17:33;3.85;;;0.73;;
50363;SDS011;36272;59.400;17.982;2022-08-30T19:22:35;2.22;;;0.50;;
50363;SDS011;36272;59.400;17.982;2022-08-30T19:27:38;1.92;;;0.40;;
50363;SDS011;36272;59.400;17.982;2022-08-30T19:32:43;1.58;;;0.68;;
50363;SDS011;36272;59.400;17.982;2022-08-30T19:37:46;2.78;;;0.80;;
50363;SDS011;36272;59.400;17.982;2022-08-30T19:42:48;2.72;;;0.50;;
50363;SDS011;36272;59.400;17.982;2022-08-30T19:47:50;2.17;;;0.40;;
50363;SDS011;36272;59.400;17.982;2022-08-30T19:52:53;1.10;;;0.57;;
50363;SDS011;36272;59.400;17.982;2022-08-30T19:57:57;1.70;;;0.57;;
50363;SDS011;36272;59.400;17.982;2022-08-30T20:02:59;1.40;;;0.65;;
50363;SDS011;36272;59.400;17.982;2022-08-30T20:08:01;2.67;;;0.60;;
50363;SDS011;36272;59.400;17.982;2022-08-30T20:13:03;2.42;;;0.68;;
50363;SDS011;36272;59.400;17.982;2022-08-30T20:18:05;1.80;;;0.70;;
50363;SDS011;36272;59.400;17.982;2022-08-30T20:23:07;1.95;;;0.63;;
50363;SDS011;36272;59.400;17.982;2022-08-30T20:28:09;2.70;;;0.80;;
50363;SDS011;36272;59.400;17.982;2022-08-30T20:33:10;3.30;;;0.80;;
50363;SDS011;36272;59.400;17.982;2022-08-30T20:38:12;2.17;;;0.70;;
50363;SDS011;36272;59.400;17.982;2022-08-30T20:43:21;2.47;;;0.70;;
50363;SDS011;36272;59.400;17.982;2022-08-30T20:48:25;3.42;;;0.98;;
50363;SDS011;36272;59.400;17.982;2022-08-30T20:53:29;2.80;;;0.82;;
50363;SDS011;36272;59.400;17.982;2022-08-30T20:58:30;2.97;;;0.70;;
50363;SDS011;36272;59.400;17.982;2022-08-30T21:03:32;3.88;;;1.00;;
50363;SDS011;36272;59.400;17.982;2022-08-30T21:08:34;2.13;;;0.80;;
50363;SDS011;36272;59.400;17.982;2022-08-30T21:13:36;8.10;;;1.10;;
50363;SDS011;36272;59.400;17.982;2022-08-30T21:18:38;2.20;;;1.10;;
50363;SDS011;36272;59.400;17.982;2022-08-30T21:23:40;1.52;;;0.80;;
50363;SDS011;36272;59.400;17.982;2022-08-30T21:28:46;4.57;;;0.98;;
50363;SDS011;36272;59.400;17.982;2022-08-30T21:33:49;2.67;;;1.05;;
50363;SDS011;36272;59.400;17.982;2022-08-30T21:38:52;3.67;;;1.15;;
50363;SDS011;36272;59.400;17.982;2022-08-30T21:43:55;5.07;;;1.30;;
50363;SDS011;36272;59.400;17.982;2022-08-30T21:48:59;3.28;;;1.65;;
50363;SDS011;36272;59.400;17.982;2022-08-30T21:54:02;8.05;;;2.40;;
50363;SDS011;36272;59.400;17.982;2022-08-30T21:59:07;4.37;;;1.77;;
50363;SDS011;36272;59.400;17.982;2022-08-30T22:04:11;6.63;;;1.38;;
50363;SDS011;36272;59.400;17.982;2022-08-30T22:09:15;5.78;;;1.30;;
50363;SDS011;36272;59.400;17.982;2022-08-30T22:14:18;3.83;;;0.98;;
50363;SDS011;36272;59.400;17.982;2022-08-30T22:19:21;2.55;;;0.82;;
50363;SDS011;36272;59.400;17.982;2022-08-30T22:24:23;3.17;;;1.10;;
50363;SDS011;36272;59.400;17.982;2022-08-30T22:29:24;2.28;;;0.88;;
50363;SDS011;36272;59.400;17.982;2022-08-30T22:34:26;2.90;;;0.93;;
50363;SDS011;36272;59.400;17.982;2022-08-30T22:39:28;3.67;;;1.05;;
50363;SDS011;36272;59.400;17.982;2022-08-30T22:49:54;4.18;;;0.88;;
50363;SDS011;36272;59.400;17.982;2022-08-30T22:54:55;6.10;;;0.90;;
50363;SDS011;36272;59.400;17.982;2022-08-30T22:59:57;2.35;;;0.80;;
50363;SDS011;36272;59.400;17.982;2022-08-30T23:04:59;3.60;;;0.80;;
50363;SDS011;36272;59.400;17.982;2022-08-30T23:10:02;2.70;;;0.80;;
50363;SDS011;36272;59.400;17.982;2022-08-30T23:15:06;5.30;;;1.00;;
50363;SDS011;36272;59.400;17.982;2022-08-30T23:20:09;3.25;;;0.82;;
50363;SDS011;36272;59.400;17.982;2022-08-30T23:25:11;3.42;;;0.90;;
50363;SDS011;36272;59.400;17.982;2022-08-30T23:30:32;1.63;;;0.77;;
50363;SDS011;36272;59.400;17.982;2022-08-30T23:35:52;4.60;;;0.85;;
50363;SDS011;36272;59.400;17.982;2022-08-30T23:41:12;4.20;;;1.00;;
50363;SDS011;36272;59.400;17.982;2022-08-30T23:46:32;4.00;;;1.00;;
50363;SDS011;36272;59.400;17.982;2022-08-30T23:51:53;3.28;;;0.68;;
50363;SDS011;36272;59.400;17.982;2022-08-30T23:57:13;2.65;;;0.70;;
